sensor_id;sensor_type;location;lat;lon;timestamp;P1;durP1;ratioP1;P2;durP2;ratioP2
76765;SDS011;65707;52.362;6.588;2024-02-23T00:02:22;2.95;;;0.40;;
76765;SDS011;65707;52.362;6.588;2024-02-23T00:04:49;1.17;;;0.15;;
76765;SDS011;65707;52.362;6.588;2024-02-23T00:07:17;0.43;;;0.10;;
76765;SDS011;65707;52.362;6.588;2024-02-23T00:09:43;1.05;;;0.17;;
76765;SDS011;65707;52.362;6.588;2024-02-23T00:12:10;1.65;;;0.20;;
76765;SDS011;65707;52.362;6.588;2024-02-23T00:14:38;1.23;;;0.22;;
76765;SDS011;65707;52.362;6.588;2024-02-23T00:17:05;1.02;;;0.28;;
76765;SDS011;65707;52.362;6.588;2024-02-23T00:19:33;1.35;;;0.17;;
76765;SDS011;65707;52.362;6.588;2024-02-23T00:21:59;0.32;;;0.10;;
76765;SDS011;65707;52.362;6.588;2024-02-23T00:24:27;0.68;;;0.10;;
76765;SDS011;65707;52.362;6.588;2024-02-23T00:26:55;1.23;;;0.10;;
76765;SDS011;65707;52.362;6.588;2024-02-23T00:29:22;0.90;;;0.10;;
76765;SDS011;65707;52.362;6.588;2024-02-23T00:31:49;0.75;;;0.10;;
76765;SDS011;65707;52.362;6.588;2024-02-23T00:34:15;0.77;;;0.30;;
76765;SDS011;65707;52.362;6.588;2024-02-23T00:36:42;0.95;;;0.20;;
76765;SDS011;65707;52.362;6.588;2024-02-23T00:39:09;1.90;;;0.38;;
76765;SDS011;65707;52.362;6.588;2024-02-23T00:41:37;2.05;;;0.30;;
76765;SDS011;65707;52.362;6.588;2024-02-23T00:44:04;1.77;;;0.30;;
76765;SDS011;65707;52.362;6.588;2024-02-23T00:46:31;1.52;;;0.40;;
76765;SDS011;65707;52.362;6.588;2024-02-23T00:48:58;2.83;;;0.50;;
76765;SDS011;65707;52.362;6.588;2024-02-23T00:51:25;2.58;;;0.60;;
76765;SDS011;65707;52.362;6.588;2024-02-23T00:53:51;3.03;;;0.50;;
76765;SDS011;65707;52.362;6.588;2024-02-23T00:56:18;3.40;;;0.50;;
76765;SDS011;65707;52.362;6.588;2024-02-23T00:58:46;2.20;;;0.50;;
76765;SDS011;65707;52.362;6.588;2024-02-23T01:01:13;3.58;;;0.70;;
76765;SDS011;65707;52.362;6.588;2024-02-23T01:03:39;4.50;;;0.65;;
76765;SDS011;65707;52.362;6.588;2024-02-23T01:06:06;3.53;;;0.60;;
76765;SDS011;65707;52.362;6.588;2024-02-23T01:08:33;4.10;;;0.73;;
76765;SDS011;65707;52.362;6.588;2024-02-23T01:11:00;2.45;;;0.47;;
76765;SDS011;65707;52.362;6.588;2024-02-23T01:13:27;3.38;;;1.08;;
76765;SDS011;65707;52.362;6.588;2024-02-23T01:15:55;5.35;;;0.77;;
76765;SDS011;65707;52.362;6.588;2024-02-23T01:18:22;2.28;;;0.50;;
76765;SDS011;65707;52.362;6.588;2024-02-23T01:20:49;3.55;;;0.60;;
76765;SDS011;65707;52.362;6.588;2024-02-23T01:23:15;4.25;;;0.70;;
76765;SDS011;65707;52.362;6.588;2024-02-23T01:25:42;4.28;;;0.90;;
76765;SDS011;65707;52.362;6.588;2024-02-23T01:28:09;4.30;;;0.95;;
76765;SDS011;65707;52.362;6.588;2024-02-23T01:30:36;6.65;;;1.20;;
76765;SDS011;65707;52.362;6.588;2024-02-23T01:33:04;5.18;;;1.00;;
76765;SDS011;65707;52.362;6.588;2024-02-23T01:35:31;3.78;;;0.65;;
76765;SDS011;65707;52.362;6.588;2024-02-23T01:37:57;6.65;;;1.00;;
76765;SDS011;65707;52.362;6.588;2024-02-23T01:40:24;7.00;;;1.38;;
76765;SDS011;65707;52.362;6.588;2024-02-23T01:42:59;5.40;;;0.80;;
76765;SDS011;65707;52.362;6.588;2024-02-23T01:45:27;7.03;;;1.40;;
76765;SDS011;65707;52.362;6.588;2024-02-23T01:47:55;7.90;;;1.48;;
76765;SDS011;65707;52.362;6.588;2024-02-23T01:50:23;7.20;;;1.02;;
76765;SDS011;65707;52.362;6.588;2024-02-23T01:52:50;6.93;;;1.23;;
76765;SDS011;65707;52.362;6.588;2024-02-23T01:55:19;4.50;;;0.82;;
76765;SDS011;65707;52.362;6.588;2024-02-23T01:57:46;6.82;;;1.30;;
76765;SDS011;65707;52.362;6.588;2024-02-23T02:00:15;4.82;;;1.20;;
76765;SDS011;65707;52.362;6.588;2024-02-23T02:02:44;1.77;;;0.40;;
76765;SDS011;65707;52.362;6.588;2024-02-23T02:05:11;3.20;;;0.55;;
76765;SDS011;65707;52.362;6.588;2024-02-23T02:07:40;2.65;;;0.55;;
76765;SDS011;65707;52.362;6.588;2024-02-23T02:10:08;4.07;;;0.65;;
76765;SDS011;65707;52.362;6.588;2024-02-23T02:12:36;5.32;;;1.50;;
76765;SDS011;65707;52.362;6.588;2024-02-23T02:15:03;3.80;;;0.90;;
76765;SDS011;65707;52.362;6.588;2024-02-23T02:17:31;4.78;;;0.88;;
76765;SDS011;65707;52.362;6.588;2024-02-23T02:19:58;2.92;;;0.73;;
76765;SDS011;65707;52.362;6.588;2024-02-23T02:22:29;4.45;;;0.85;;
76765;SDS011;65707;52.362;6.588;2024-02-23T02:24:59;3.47;;;0.75;;
76765;SDS011;65707;52.362;6.588;2024-02-23T02:27:26;2.55;;;0.50;;
76765;SDS011;65707;52.362;6.588;2024-02-23T02:29:52;3.28;;;0.30;;
76765;SDS011;65707;52.362;6.588;2024-02-23T02:32:19;1.83;;;0.20;;
76765;SDS011;65707;52.362;6.588;2024-02-23T02:34:46;1.23;;;0.22;;
76765;SDS011;65707;52.362;6.588;2024-02-23T02:37:13;4.45;;;0.52;;
76765;SDS011;65707;52.362;6.588;2024-02-23T02:39:39;3.97;;;0.50;;
76765;SDS011;65707;52.362;6.588;2024-02-23T02:42:08;3.05;;;0.68;;
76765;SDS011;65707;52.362;6.588;2024-02-23T02:44:35;5.57;;;0.40;;
76765;SDS011;65707;52.362;6.588;2024-02-23T02:47:02;3.70;;;0.68;;
76765;SDS011;65707;52.362;6.588;2024-02-23T02:49:29;2.17;;;0.40;;
76765;SDS011;65707;52.362;6.588;2024-02-23T02:51:55;1.90;;;0.40;;
76765;SDS011;65707;52.362;6.588;2024-02-23T02:54:22;3.58;;;0.80;;
76765;SDS011;65707;52.362;6.588;2024-02-23T02:56:49;3.63;;;0.57;;
76765;SDS011;65707;52.362;6.588;2024-02-23T02:59:20;4.88;;;1.17;;
76765;SDS011;65707;52.362;6.588;2024-02-23T03:01:47;6.03;;;1.30;;
76765;SDS011;65707;52.362;6.588;2024-02-23T03:04:14;8.73;;;1.67;;
76765;SDS011;65707;52.362;6.588;2024-02-23T03:06:40;6.15;;;1.92;;
76765;SDS011;65707;52.362;6.588;2024-02-23T03:09:07;9.05;;;1.85;;
76765;SDS011;65707;52.362;6.588;2024-02-23T03:11:34;7.93;;;2.60;;
76765;SDS011;65707;52.362;6.588;2024-02-23T03:14:01;8.55;;;2.45;;
76765;SDS011;65707;52.362;6.588;2024-02-23T03:16:29;9.32;;;2.22;;
76765;SDS011;65707;52.362;6.588;2024-02-23T03:18:56;13.27;;;3.17;;
76765;SDS011;65707;52.362;6.588;2024-02-23T03:21:23;15.57;;;2.63;;
76765;SDS011;65707;52.362;6.588;2024-02-23T03:23:50;10.20;;;2.45;;
76765;SDS011;65707;52.362;6.588;2024-02-23T03:26:16;8.52;;;2.20;;
76765;SDS011;65707;52.362;6.588;2024-02-23T03:28:43;6.13;;;1.75;;
76765;SDS011;65707;52.362;6.588;2024-02-23T03:31:10;8.93;;;2.30;;
76765;SDS011;65707;52.362;6.588;2024-02-23T03:33:38;7.82;;;1.90;;
76765;SDS011;65707;52.362;6.588;2024-02-23T03:36:05;8.48;;;1.75;;
76765;SDS011;65707;52.362;6.588;2024-02-23T03:38:32;8.65;;;1.80;;
76765;SDS011;65707;52.362;6.588;2024-02-23T03:40:59;5.15;;;1.08;;
76765;SDS011;65707;52.362;6.588;2024-02-23T03:43:26;7.07;;;1.40;;
76765;SDS011;65707;52.362;6.588;2024-02-23T03:45:53;5.95;;;1.15;;
76765;SDS011;65707;52.362;6.588;2024-02-23T03:48:19;6.07;;;1.10;;
76765;SDS011;65707;52.362;6.588;2024-02-23T03:50:47;5.20;;;1.15;;
76765;SDS011;65707;52.362;6.588;2024-02-23T03:53:14;4.82;;;1.05;;
76765;SDS011;65707;52.362;6.588;2024-02-23T03:55:41;6.78;;;1.45;;
76765;SDS011;65707;52.362;6.588;2024-02-23T03:58:08;7.97;;;1.65;;
76765;SDS011;65707;52.362;6.588;2024-02-23T04:00:35;7.40;;;1.35;;
76765;SDS011;65707;52.362;6.588;2024-02-23T04:03:01;11.20;;;1.50;;
76765;SDS011;65707;52.362;6.588;2024-02-23T04:05:28;10.90;;;1.30;;
76765;SDS011;65707;52.362;6.588;2024-02-23T04:07:56;8.18;;;1.98;;
76765;SDS011;65707;52.362;6.588;2024-02-23T04:10:23;6.47;;;1.42;;
76765;SDS011;65707;52.362;6.588;2024-02-23T04:12:50;7.07;;;1.42;;
76765;SDS011;65707;52.362;6.588;2024-02-23T04:15:16;6.20;;;1.23;;
76765;SDS011;65707;52.362;6.588;2024-02-23T04:17:44;4.25;;;1.13;;
76765;SDS011;65707;52.362;6.588;2024-02-23T04:20:12;6.10;;;1.15;;
76765;SDS011;65707;52.362;6.588;2024-02-23T04:22:38;5.80;;;1.40;;
76765;SDS011;65707;52.362;6.588;2024-02-23T04:25:07;4.93;;;1.13;;
76765;SDS011;65707;52.362;6.588;2024-02-23T04:27:34;6.25;;;0.88;;
76765;SDS011;65707;52.362;6.588;2024-02-23T04:30:01;5.75;;;1.00;;
76765;SDS011;65707;52.362;6.588;2024-02-23T04:32:27;7.30;;;1.38;;
76765;SDS011;65707;52.362;6.588;2024-02-23T04:34:55;7.70;;;1.15;;
76765;SDS011;65707;52.362;6.588;2024-02-23T04:37:22;5.97;;;0.77;;
76765;SDS011;65707;52.362;6.588;2024-02-23T04:39:49;9.80;;;1.45;;
76765;SDS011;65707;52.362;6.588;2024-02-23T04:42:17;6.25;;;1.27;;
76765;SDS011;65707;52.362;6.588;2024-02-23T04:44:44;9.57;;;1.20;;
76765;SDS011;65707;52.362;6.588;2024-02-23T04:47:09;7.22;;;1.50;;
76765;SDS011;65707;52.362;6.588;2024-02-23T04:49:36;7.13;;;1.00;;
76765;SDS011;65707;52.362;6.588;2024-02-23T04:52:04;4.70;;;1.10;;
76765;SDS011;65707;52.362;6.588;2024-02-23T04:54:31;6.55;;;1.42;;
76765;SDS011;65707;52.362;6.588;2024-02-23T04:56:58;6.15;;;1.10;;
76765;SDS011;65707;52.362;6.588;2024-02-23T04:59:26;7.90;;;1.10;;
76765;SDS011;65707;52.362;6.588;2024-02-23T05:01:55;7.32;;;1.20;;
76765;SDS011;65707;52.362;6.588;2024-02-23T05:04:21;5.68;;;1.00;;
76765;SDS011;65707;52.362;6.588;2024-02-23T05:06:48;8.38;;;1.40;;
76765;SDS011;65707;52.362;6.588;2024-02-23T05:09:15;9.38;;;1.40;;
76765;SDS011;65707;52.362;6.588;2024-02-23T05:11:41;6.20;;;1.40;;
76765;SDS011;65707;52.362;6.588;2024-02-23T05:14:08;4.30;;;0.95;;
76765;SDS011;65707;52.362;6.588;2024-02-23T05:16:36;5.00;;;0.93;;
76765;SDS011;65707;52.362;6.588;2024-02-23T05:19:03;6.82;;;1.70;;
76765;SDS011;65707;52.362;6.588;2024-02-23T05:21:29;5.70;;;1.20;;
76765;SDS011;65707;52.362;6.588;2024-02-23T05:23:56;7.75;;;1.10;;
76765;SDS011;65707;52.362;6.588;2024-02-23T05:26:23;4.20;;;0.85;;
76765;SDS011;65707;52.362;6.588;2024-02-23T05:28:49;5.93;;;1.40;;
76765;SDS011;65707;52.362;6.588;2024-02-23T05:31:17;6.25;;;1.30;;
76765;SDS011;65707;52.362;6.588;2024-02-23T05:33:46;5.10;;;1.10;;
76765;SDS011;65707;52.362;6.588;2024-02-23T05:36:13;6.07;;;1.00;;
76765;SDS011;65707;52.362;6.588;2024-02-23T05:38:40;8.00;;;1.20;;
76765;SDS011;65707;52.362;6.588;2024-02-23T05:43:38;8.48;;;1.30;;
76765;SDS011;65707;52.362;6.588;2024-02-23T05:46:04;9.63;;;1.30;;
76765;SDS011;65707;52.362;6.588;2024-02-23T05:48:31;7.28;;;1.20;;
76765;SDS011;65707;52.362;6.588;2024-02-23T05:51:00;6.28;;;1.05;;
76765;SDS011;65707;52.362;6.588;2024-02-23T05:53:27;8.98;;;1.30;;
76765;SDS011;65707;52.362;6.588;2024-02-23T05:55:57;8.07;;;1.65;;
76765;SDS011;65707;52.362;6.588;2024-02-23T05:58:24;8.82;;;1.73;;
76765;SDS011;65707;52.362;6.588;2024-02-23T06:00:50;9.63;;;1.70;;
76765;SDS011;65707;52.362;6.588;2024-02-23T06:03:18;9.15;;;1.60;;
76765;SDS011;65707;52.362;6.588;2024-02-23T06:05:45;4.75;;;0.90;;
76765;SDS011;65707;52.362;6.588;2024-02-23T06:08:13;6.25;;;1.50;;
76765;SDS011;65707;52.362;6.588;2024-02-23T06:10:40;7.47;;;1.45;;
76765;SDS011;65707;52.362;6.588;2024-02-23T06:13:08;7.32;;;1.20;;
76765;SDS011;65707;52.362;6.588;2024-02-23T06:15:34;9.38;;;1.70;;
76765;SDS011;65707;52.362;6.588;2024-02-23T06:18:01;9.15;;;1.38;;
76765;SDS011;65707;52.362;6.588;2024-02-23T06:20:28;7.13;;;1.10;;
76765;SDS011;65707;52.362;6.588;2024-02-23T06:22:54;5.07;;;1.00;;
76765;SDS011;65707;52.362;6.588;2024-02-23T06:25:23;8.45;;;1.30;;
76765;SDS011;65707;52.362;6.588;2024-02-23T06:27:50;9.30;;;1.20;;
76765;SDS011;65707;52.362;6.588;2024-02-23T06:30:16;8.82;;;1.10;;
76765;SDS011;65707;52.362;6.588;2024-02-23T06:32:43;9.15;;;1.80;;
76765;SDS011;65707;52.362;6.588;2024-02-23T06:35:10;6.75;;;1.38;;
76765;SDS011;65707;52.362;6.588;2024-02-23T06:37:37;7.20;;;1.20;;
76765;SDS011;65707;52.362;6.588;2024-02-23T06:40:04;8.05;;;1.17;;
76765;SDS011;65707;52.362;6.588;2024-02-23T06:42:33;6.35;;;1.10;;
76765;SDS011;65707;52.362;6.588;2024-02-23T06:45:00;9.02;;;1.20;;
76765;SDS011;65707;52.362;6.588;2024-02-23T06:47:27;6.05;;;1.35;;
76765;SDS011;65707;52.362;6.588;2024-02-23T06:49:53;6.63;;;1.05;;
76765;SDS011;65707;52.362;6.588;2024-02-23T06:52:20;5.25;;;1.02;;
76765;SDS011;65707;52.362;6.588;2024-02-23T06:54:48;6.68;;;1.08;;
76765;SDS011;65707;52.362;6.588;2024-02-23T06:57:15;8.75;;;1.55;;
76765;SDS011;65707;52.362;6.588;2024-02-23T06:59:43;6.35;;;1.10;;
76765;SDS011;65707;52.362;6.588;2024-02-23T07:02:09;6.10;;;1.17;;
76765;SDS011;65707;52.362;6.588;2024-02-23T07:04:36;6.70;;;0.90;;
76765;SDS011;65707;52.362;6.588;2024-02-23T07:07:03;6.55;;;1.20;;
76765;SDS011;65707;52.362;6.588;2024-02-23T07:09:33;4.38;;;1.00;;
76765;SDS011;65707;52.362;6.588;2024-02-23T07:12:00;9.73;;;1.63;;
76765;SDS011;65707;52.362;6.588;2024-02-23T07:14:27;6.75;;;1.00;;
76765;SDS011;65707;52.362;6.588;2024-02-23T07:16:55;9.25;;;1.00;;
76765;SDS011;65707;52.362;6.588;2024-02-23T07:19:21;4.78;;;1.20;;
76765;SDS011;65707;52.362;6.588;2024-02-23T07:21:48;9.02;;;1.00;;
76765;SDS011;65707;52.362;6.588;2024-02-23T07:24:15;7.28;;;1.10;;
76765;SDS011;65707;52.362;6.588;2024-02-23T07:26:42;7.20;;;1.00;;
76765;SDS011;65707;52.362;6.588;2024-02-23T07:29:09;5.47;;;1.35;;
76765;SDS011;65707;52.362;6.588;2024-02-23T07:31:35;9.60;;;1.25;;
76765;SDS011;65707;52.362;6.588;2024-02-23T07:34:03;7.18;;;1.02;;
76765;SDS011;65707;52.362;6.588;2024-02-23T07:36:30;11.35;;;1.40;;
76765;SDS011;65707;52.362;6.588;2024-02-23T07:38:57;4.78;;;1.00;;
76765;SDS011;65707;52.362;6.588;2024-02-23T07:41:23;5.55;;;0.98;;
76765;SDS011;65707;52.362;6.588;2024-02-23T07:43:50;6.43;;;0.80;;
76765;SDS011;65707;52.362;6.588;2024-02-23T07:46:17;7.43;;;1.20;;
76765;SDS011;65707;52.362;6.588;2024-02-23T07:48:44;7.38;;;1.15;;
76765;SDS011;65707;52.362;6.588;2024-02-23T07:51:14;7.88;;;1.63;;
76765;SDS011;65707;52.362;6.588;2024-02-23T07:53:41;8.35;;;1.20;;
76765;SDS011;65707;52.362;6.588;2024-02-23T07:56:07;7.07;;;1.25;;
76765;SDS011;65707;52.362;6.588;2024-02-23T07:58:35;6.03;;;1.20;;
76765;SDS011;65707;52.362;6.588;2024-02-23T08:01:02;10.75;;;1.50;;
76765;SDS011;65707;52.362;6.588;2024-02-23T08:03:29;9.23;;;1.75;;
76765;SDS011;65707;52.362;6.588;2024-02-23T08:05:56;7.55;;;1.63;;
76765;SDS011;65707;52.362;6.588;2024-02-23T08:08:24;6.43;;;1.52;;
76765;SDS011;65707;52.362;6.588;2024-02-23T08:10:52;9.20;;;1.70;;
76765;SDS011;65707;52.362;6.588;2024-02-23T08:13:19;6.05;;;1.70;;
76765;SDS011;65707;52.362;6.588;2024-02-23T08:15:46;4.35;;;1.05;;
76765;SDS011;65707;52.362;6.588;2024-02-23T08:18:13;8.73;;;1.33;;
76765;SDS011;65707;52.362;6.588;2024-02-23T08:20:39;5.93;;;0.80;;
76765;SDS011;65707;52.362;6.588;2024-02-23T08:23:06;9.75;;;1.25;;
76765;SDS011;65707;52.362;6.588;2024-02-23T08:25:35;5.95;;;1.15;;
76765;SDS011;65707;52.362;6.588;2024-02-23T08:28:03;4.63;;;0.82;;
76765;SDS011;65707;52.362;6.588;2024-02-23T08:30:31;8.80;;;1.83;;
76765;SDS011;65707;52.362;6.588;2024-02-23T08:32:58;7.30;;;1.00;;
76765;SDS011;65707;52.362;6.588;2024-02-23T08:35:25;5.22;;;0.90;;
76765;SDS011;65707;52.362;6.588;2024-02-23T08:37:54;8.68;;;1.70;;
76765;SDS011;65707;52.362;6.588;2024-02-23T08:40:24;8.90;;;1.65;;
76765;SDS011;65707;52.362;6.588;2024-02-23T08:42:52;7.10;;;1.35;;
76765;SDS011;65707;52.362;6.588;2024-02-23T08:45:18;3.50;;;0.73;;
76765;SDS011;65707;52.362;6.588;2024-02-23T08:47:45;7.63;;;1.00;;
76765;SDS011;65707;52.362;6.588;2024-02-23T08:50:12;5.82;;;1.25;;
76765;SDS011;65707;52.362;6.588;2024-02-23T08:52:39;8.32;;;1.10;;
76765;SDS011;65707;52.362;6.588;2024-02-23T08:55:06;7.05;;;0.90;;
76765;SDS011;65707;52.362;6.588;2024-02-23T08:57:34;6.43;;;1.00;;
76765;SDS011;65707;52.362;6.588;2024-02-23T09:00:03;10.13;;;1.65;;
76765;SDS011;65707;52.362;6.588;2024-02-23T09:02:30;5.50;;;1.00;;
76765;SDS011;65707;52.362;6.588;2024-02-23T09:04:57;6.38;;;1.00;;
76765;SDS011;65707;52.362;6.588;2024-02-23T09:07:24;7.85;;;1.17;;
76765;SDS011;65707;52.362;6.588;2024-02-23T09:09:51;7.10;;;1.00;;
76765;SDS011;65707;52.362;6.588;2024-02-23T09:12:18;4.78;;;1.20;;
76765;SDS011;65707;52.362;6.588;2024-02-23T09:14:45;5.53;;;0.80;;
76765;SDS011;65707;52.362;6.588;2024-02-23T09:17:14;9.00;;;1.17;;
76765;SDS011;65707;52.362;6.588;2024-02-23T09:19:41;6.38;;;1.25;;
76765;SDS011;65707;52.362;6.588;2024-02-23T09:22:07;4.63;;;0.88;;
76765;SDS011;65707;52.362;6.588;2024-02-23T09:24:34;7.32;;;1.10;;
76765;SDS011;65707;52.362;6.588;2024-02-23T09:27:01;6.57;;;0.75;;
76765;SDS011;65707;52.362;6.588;2024-02-23T09:29:28;8.93;;;1.70;;
76765;SDS011;65707;52.362;6.588;2024-02-23T09:31:55;5.43;;;0.90;;
76765;SDS011;65707;52.362;6.588;2024-02-23T09:34:23;8.10;;;1.00;;
76765;SDS011;65707;52.362;6.588;2024-02-23T09:36:50;6.35;;;1.02;;
76765;SDS011;65707;52.362;6.588;2024-02-23T09:39:16;4.88;;;1.00;;
76765;SDS011;65707;52.362;6.588;2024-02-23T09:41:43;6.20;;;0.90;;
76765;SDS011;65707;52.362;6.588;2024-02-23T09:44:10;5.78;;;1.23;;
76765;SDS011;65707;52.362;6.588;2024-02-23T09:46:39;5.40;;;0.70;;
76765;SDS011;65707;52.362;6.588;2024-02-23T09:49:09;8.57;;;1.33;;
76765;SDS011;65707;52.362;6.588;2024-02-23T09:51:39;3.97;;;0.63;;
76765;SDS011;65707;52.362;6.588;2024-02-23T09:54:07;4.75;;;0.95;;
76765;SDS011;65707;52.362;6.588;2024-02-23T09:56:33;5.13;;;0.85;;
76765;SDS011;65707;52.362;6.588;2024-02-23T09:59:02;5.30;;;0.70;;
76765;SDS011;65707;52.362;6.588;2024-02-23T10:01:30;6.05;;;0.90;;
76765;SDS011;65707;52.362;6.588;2024-02-23T10:04:01;4.90;;;0.77;;
76765;SDS011;65707;52.362;6.588;2024-02-23T10:06:29;5.32;;;1.00;;
76765;SDS011;65707;52.362;6.588;2024-02-23T10:08:57;7.35;;;1.00;;
76765;SDS011;65707;52.362;6.588;2024-02-23T10:11:24;8.13;;;1.20;;
76765;SDS011;65707;52.362;6.588;2024-02-23T10:13:51;7.28;;;1.20;;
76765;SDS011;65707;52.362;6.588;2024-02-23T10:16:18;4.78;;;0.95;;
76765;SDS011;65707;52.362;6.588;2024-02-23T10:18:46;4.10;;;0.80;;
76765;SDS011;65707;52.362;6.588;2024-02-23T10:21:14;7.53;;;0.80;;
76765;SDS011;65707;52.362;6.588;2024-02-23T10:23:41;6.82;;;1.27;;
76765;SDS011;65707;52.362;6.588;2024-02-23T10:26:09;7.30;;;0.77;;
76765;SDS011;65707;52.362;6.588;2024-02-23T10:28:36;8.30;;;1.35;;
76765;SDS011;65707;52.362;6.588;2024-02-23T10:31:04;6.82;;;1.20;;
76765;SDS011;65707;52.362;6.588;2024-02-23T10:33:31;6.60;;;1.00;;
76765;SDS011;65707;52.362;6.588;2024-02-23T10:35:58;6.57;;;0.85;;
76765;SDS011;65707;52.362;6.588;2024-02-23T10:38:27;6.30;;;0.80;;
76765;SDS011;65707;52.362;6.588;2024-02-23T10:40:58;5.72;;;0.88;;
76765;SDS011;65707;52.362;6.588;2024-02-23T10:43:36;5.90;;;0.88;;
76765;SDS011;65707;52.362;6.588;2024-02-23T10:46:10;9.52;;;1.02;;
76765;SDS011;65707;52.362;6.588;2024-02-23T10:48:39;7.35;;;0.82;;
76765;SDS011;65707;52.362;6.588;2024-02-23T10:51:07;4.70;;;0.70;;
76765;SDS011;65707;52.362;6.588;2024-02-23T10:53:36;4.60;;;0.73;;
76765;SDS011;65707;52.362;6.588;2024-02-23T10:56:05;9.07;;;0.80;;
76765;SDS011;65707;52.362;6.588;2024-02-23T10:58:35;6.65;;;1.00;;
76765;SDS011;65707;52.362;6.588;2024-02-23T11:01:02;5.53;;;0.70;;
76765;SDS011;65707;52.362;6.588;2024-02-23T11:03:34;7.88;;;1.05;;
76765;SDS011;65707;52.362;6.588;2024-02-23T11:06:05;5.53;;;0.55;;
76765;SDS011;65707;52.362;6.588;2024-02-23T11:08:33;4.78;;;1.00;;
76765;SDS011;65707;52.362;6.588;2024-02-23T11:11:06;4.57;;;0.90;;
76765;SDS011;65707;52.362;6.588;2024-02-23T11:13:35;6.60;;;0.88;;
76765;SDS011;65707;52.362;6.588;2024-02-23T11:16:04;5.05;;;0.90;;
76765;SDS011;65707;52.362;6.588;2024-02-23T11:18:32;7.68;;;1.30;;
76765;SDS011;65707;52.362;6.588;2024-02-23T11:21:01;4.43;;;0.70;;
76765;SDS011;65707;52.362;6.588;2024-02-23T11:26:07;7.47;;;0.95;;
76765;SDS011;65707;52.362;6.588;2024-02-23T11:28:43;6.55;;;1.13;;
76765;SDS011;65707;52.362;6.588;2024-02-23T11:31:14;7.35;;;0.80;;
76765;SDS011;65707;52.362;6.588;2024-02-23T11:33:47;8.18;;;1.20;;
76765;SDS011;65707;52.362;6.588;2024-02-23T11:36:21;11.85;;;1.40;;
76765;SDS011;65707;52.362;6.588;2024-02-23T11:38:51;6.85;;;1.20;;
76765;SDS011;65707;52.362;6.588;2024-02-23T11:41:20;9.85;;;1.30;;
76765;SDS011;65707;52.362;6.588;2024-02-23T11:43:49;9.30;;;1.20;;
76765;SDS011;65707;52.362;6.588;2024-02-23T11:46:17;5.95;;;1.10;;
76765;SDS011;65707;52.362;6.588;2024-02-23T11:48:44;8.85;;;1.23;;
76765;SDS011;65707;52.362;6.588;2024-02-23T11:51:12;6.18;;;1.08;;
76765;SDS011;65707;52.362;6.588;2024-02-23T11:53:39;6.70;;;1.10;;
76765;SDS011;65707;52.362;6.588;2024-02-23T11:56:06;8.52;;;1.33;;
76765;SDS011;65707;52.362;6.588;2024-02-23T11:58:33;8.05;;;1.10;;
76765;SDS011;65707;52.362;6.588;2024-02-23T12:01:01;4.68;;;0.90;;
76765;SDS011;65707;52.362;6.588;2024-02-23T12:03:32;4.20;;;0.95;;
76765;SDS011;65707;52.362;6.588;2024-02-23T12:05:59;4.95;;;0.90;;
76765;SDS011;65707;52.362;6.588;2024-02-23T12:08:26;6.40;;;0.70;;
76765;SDS011;65707;52.362;6.588;2024-02-23T12:10:56;6.55;;;1.10;;
76765;SDS011;65707;52.362;6.588;2024-02-23T12:13:25;4.25;;;0.90;;
76765;SDS011;65707;52.362;6.588;2024-02-23T12:15:53;7.85;;;1.10;;
76765;SDS011;65707;52.362;6.588;2024-02-23T12:18:22;6.50;;;1.00;;
76765;SDS011;65707;52.362;6.588;2024-02-23T12:20:51;4.57;;;0.98;;
76765;SDS011;65707;52.362;6.588;2024-02-23T12:23:18;8.10;;;0.80;;
76765;SDS011;65707;52.362;6.588;2024-02-23T12:25:51;4.93;;;1.65;;
76765;SDS011;65707;52.362;6.588;2024-02-23T12:28:19;3.90;;;0.88;;
76765;SDS011;65707;52.362;6.588;2024-02-23T12:30:46;6.18;;;1.10;;
76765;SDS011;65707;52.362;6.588;2024-02-23T12:33:28;3.42;;;0.60;;
76765;SDS011;65707;52.362;6.588;2024-02-23T12:35:55;6.45;;;1.27;;
76765;SDS011;65707;52.362;6.588;2024-02-23T12:38:22;4.47;;;0.88;;
76765;SDS011;65707;52.362;6.588;2024-02-23T12:40:49;4.20;;;0.80;;
76765;SDS011;65707;52.362;6.588;2024-02-23T12:43:17;6.30;;;1.00;;
76765;SDS011;65707;52.362;6.588;2024-02-23T12:45:46;5.90;;;0.93;;
76765;SDS011;65707;52.362;6.588;2024-02-23T12:48:14;5.70;;;0.90;;
76765;SDS011;65707;52.362;6.588;2024-02-23T12:50:42;6.80;;;0.90;;
76765;SDS011;65707;52.362;6.588;2024-02-23T12:53:10;4.38;;;0.82;;
76765;SDS011;65707;52.362;6.588;2024-02-23T12:55:57;4.13;;;0.70;;
76765;SDS011;65707;52.362;6.588;2024-02-23T12:58:24;5.10;;;0.82;;
76765;SDS011;65707;52.362;6.588;2024-02-23T13:00:50;8.43;;;0.90;;
76765;SDS011;65707;52.362;6.588;2024-02-23T13:03:19;4.10;;;0.77;;
76765;SDS011;65707;52.362;6.588;2024-02-23T13:05:51;6.07;;;0.90;;
76765;SDS011;65707;52.362;6.588;2024-02-23T13:08:18;2.63;;;0.60;;
76765;SDS011;65707;52.362;6.588;2024-02-23T13:10:44;4.03;;;0.57;;
76765;SDS011;65707;52.362;6.588;2024-02-23T13:13:11;5.00;;;0.80;;
76765;SDS011;65707;52.362;6.588;2024-02-23T13:15:39;5.05;;;1.10;;
76765;SDS011;65707;52.362;6.588;2024-02-23T13:18:06;4.82;;;0.98;;
76765;SDS011;65707;52.362;6.588;2024-02-23T13:20:34;5.53;;;0.70;;
76765;SDS011;65707;52.362;6.588;2024-02-23T13:23:02;6.78;;;1.02;;
76765;SDS011;65707;52.362;6.588;2024-02-23T13:25:29;7.95;;;1.25;;
76765;SDS011;65707;52.362;6.588;2024-02-23T13:27:56;7.32;;;1.60;;
76765;SDS011;65707;52.362;6.588;2024-02-23T13:30:23;5.53;;;1.10;;
76765;SDS011;65707;52.362;6.588;2024-02-23T13:32:50;6.10;;;0.70;;
76765;SDS011;65707;52.362;6.588;2024-02-23T13:35:16;4.00;;;1.33;;
76765;SDS011;65707;52.362;6.588;2024-02-23T13:37:44;5.10;;;0.77;;
76765;SDS011;65707;52.362;6.588;2024-02-23T13:40:12;4.63;;;0.90;;
76765;SDS011;65707;52.362;6.588;2024-02-23T13:42:40;3.33;;;0.75;;
76765;SDS011;65707;52.362;6.588;2024-02-23T13:45:07;3.92;;;0.60;;
76765;SDS011;65707;52.362;6.588;2024-02-23T13:47:35;6.78;;;1.05;;
76765;SDS011;65707;52.362;6.588;2024-02-23T13:50:02;10.98;;;1.35;;
76765;SDS011;65707;52.362;6.588;2024-02-23T13:52:29;6.03;;;1.10;;
76765;SDS011;65707;52.362;6.588;2024-02-23T13:54:56;5.90;;;1.05;;
76765;SDS011;65707;52.362;6.588;2024-02-23T13:57:24;5.38;;;0.95;;
76765;SDS011;65707;52.362;6.588;2024-02-23T13:59:51;5.28;;;0.93;;
76765;SDS011;65707;52.362;6.588;2024-02-23T14:02:24;4.32;;;0.80;;
76765;SDS011;65707;52.362;6.588;2024-02-23T14:04:53;6.43;;;0.80;;
76765;SDS011;65707;52.362;6.588;2024-02-23T14:07:28;4.65;;;1.20;;
76765;SDS011;65707;52.362;6.588;2024-02-23T14:09:55;5.60;;;0.88;;
76765;SDS011;65707;52.362;6.588;2024-02-23T14:12:21;6.60;;;1.23;;
76765;SDS011;65707;52.362;6.588;2024-02-23T14:14:50;6.35;;;1.20;;
76765;SDS011;65707;52.362;6.588;2024-02-23T14:17:16;5.93;;;1.00;;
76765;SDS011;65707;52.362;6.588;2024-02-23T14:19:43;6.72;;;1.00;;
76765;SDS011;65707;52.362;6.588;2024-02-23T14:22:10;6.15;;;0.90;;
76765;SDS011;65707;52.362;6.588;2024-02-23T14:24:36;10.40;;;1.50;;
76765;SDS011;65707;52.362;6.588;2024-02-23T14:27:04;7.07;;;1.17;;
76765;SDS011;65707;52.362;6.588;2024-02-23T14:29:31;7.22;;;1.73;;
76765;SDS011;65707;52.362;6.588;2024-02-23T14:32:00;5.28;;;1.10;;
76765;SDS011;65707;52.362;6.588;2024-02-23T14:34:27;5.72;;;0.85;;
76765;SDS011;65707;52.362;6.588;2024-02-23T14:36:55;4.53;;;0.90;;
76765;SDS011;65707;52.362;6.588;2024-02-23T14:39:22;6.93;;;1.05;;
76765;SDS011;65707;52.362;6.588;2024-02-23T14:41:48;5.45;;;0.88;;
76765;SDS011;65707;52.362;6.588;2024-02-23T14:44:15;7.35;;;1.13;;
76765;SDS011;65707;52.362;6.588;2024-02-23T14:46:42;5.20;;;0.85;;
76765;SDS011;65707;52.362;6.588;2024-02-23T14:49:10;6.25;;;1.00;;
76765;SDS011;65707;52.362;6.588;2024-02-23T14:51:36;6.72;;;1.20;;
76765;SDS011;65707;52.362;6.588;2024-02-23T14:54:04;5.18;;;1.10;;
76765;SDS011;65707;52.362;6.588;2024-02-23T14:56:31;5.32;;;1.30;;